Time;durP1;ratioP1;P1;durP2;ratioP2;P2;SDS_P1;SDS_P2;PMS_P1;PMS_P2;Temp;Humidity;BMP_temperature;BMP_pressure;BME280_temperature;BME280_humidity;BME280_pressure;Samples;Min_cycle;Max_cycle;Signal;HPM_P1;HPM_P2
2021/03/18 00:00:48;;;;;;;;;;;;;;;;;;5066156;28;949;-61
2021/03/18 00:03:14;;;;;;;;;;;;;;;;;;5066101;28;834;-61
2021/03/18 00:05:40;;;;;;;;;;;;;;;;;;5066328;28;827;-61
2021/03/18 00:08:05;;;;;;;;;;;;;;;;;;5066221;28;904;-61
2021/03/18 00:10:31;;;;;;;;;;;;;;;;;;5066229;28;1918;-61
2021/03/18 00:12:56;;;;;;;;;;;;;;;;;;5067542;28;838;-61
2021/03/18 00:15:22;;;;;;;;;;;;;;;;;;5067281;28;1040;-61
2021/03/18 00:17:48;;;;;;;;;;;;;;;;;;5069760;28;1147;-61
2021/03/18 00:20:14;;;;;;;;;;;;;;;;;;5069813;28;854;-61
2021/03/18 00:22:40;;;;;;;;;;;;;;;;;;5070382;28;914;-60
2021/03/18 00:25:07;;;;;;;;;;;;;;;;;;5069932;28;887;-61
2021/03/18 00:27:32;;;;;;;;;;;;;;;;;;5070040;28;1399;-61
2021/03/18 00:29:58;;;;;;;;;;;;;;;;;;5070110;28;1885;-61
2021/03/18 00:32:23;;;;;;;;;;;;;;;;;;5071383;28;835;-61
2021/03/18 00:34:48;;;;;;;;;;;;;;;;;;5069010;28;807;-61
2021/03/18 00:37:14;;;;;;;;;;;;;;;;;;5069347;28;811;-62
2021/03/18 00:39:39;;;;;;;;;;;;;;;;;;5069762;28;835;-61
2021/03/18 00:42:05;;;;;;;;;;;;;;;;;;5068976;28;925;-62
2021/03/18 00:44:30;;;;;;;;;;;;;;;;;;5068862;28;945;-62
2021/03/18 00:46:56;;;;;;;;;;;;;;;;;;5070395;28;818;-62
2021/03/18 00:49:21;;;;;;;;;;;;;;;;;;5069173;28;843;-61
2021/03/18 00:51:46;;;;;;;;;;;;;;;;;;5069739;28;1906;-61
2021/03/18 00:54:12;;;;;;;;;;;;;;;;;;5056048;28;1093;-61
2021/03/18 00:56:37;;;;;;;;;;;;;;;;;;5049495;28;846;-61
2021/03/18 00:59:03;;;;;;;;;;;;;;;;;;5049153;28;941;-61
2021/03/18 01:01:28;;;;;;;;;;;;;;;;;;5048677;28;839;-62
2021/03/18 01:03:54;;;;;;;;;;;;;;;;;;5049727;28;969;-61
2021/03/18 01:06:21;;;;;;;;;;;;;;;;;;5047334;28;776;-61
2021/03/18 01:08:47;;;;;;;;;;;;;;;;;;5049246;28;850;-61
2021/03/18 01:11:16;;;;;;;;;;;;;;;;;;5049160;28;1918;-61
2021/03/18 01:13:44;;;;;;;;;;;;;;;;;;5048319;28;1608;-61
2021/03/18 01:16:17;;;;;;;;;;;;;;;;;;5048614;28;678;-61
2021/03/18 01:18:47;;;;;;;;;;;;;;;;;;5049011;28;949;-61
2021/03/18 01:21:13;;;;;;;;;;;;;;;;;;5048982;28;878;-61
2021/03/18 01:23:38;;;;;;;;;;;;;;;;;;5047523;28;883;-61
2021/03/18 01:26:05;;;;;;;;;;;;;;;;;;5048339;28;831;-61
2021/03/18 01:28:30;;;;;;;;;;;;;;;;;;5048596;28;867;-60
2021/03/18 01:30:56;;;;;;;;;;;;;;;;;;5049123;28;1961;-61
2021/03/18 01:33:21;;;;;;;;;;;;;;;;;;5049523;28;843;-62
2021/03/18 01:35:47;;;;;;;;;;;;;;;;;;5048401;28;930;-61
2021/03/18 01:38:13;;;;;;;;;;;;;;;;;;5048589;28;954;-61
2021/03/18 01:40:39;;;;;;;;;;;;;;;;;;5048274;28;1011;-61
2021/03/18 01:43:04;;;;;;;;;;;;;;;;;;5048005;28;838;-61
2021/03/18 01:45:30;;;;;;;;;;;;;;;;;;5047565;28;859;-61
2021/03/18 01:47:56;;;;;;;;;;;;;;;;;;5049256;28;830;-61
2021/03/18 01:50:23;;;;;;;;;;;;;;;;;;5048163;28;2005;-61
2021/03/18 01:52:48;;;;;;;;;;;;;;;;;;5052450;28;1124;-61
2021/03/18 01:55:18;;;;;;;;;;;;;;;;;;5068199;28;894;-61
2021/03/18 01:57:43;;;;;;;;;;;;;;;;;;5067636;28;879;-61
2021/03/18 02:00:10;;;;;;;;;;;;;;;;;;5067480;28;850;-61
2021/03/18 02:02:35;;;;;;;;;;;;;;;;;;5067765;28;937;-61
2021/03/18 02:05:01;;;;;;;;;;;;;;;;;;5067299;28;842;-61
2021/03/18 02:07:27;;;;;;;;;;;;;;;;;;5067856;28;843;-63
2021/03/18 02:09:52;;;;;;;;;;;;;;;;;;5068517;28;1889;-61
2021/03/18 02:12:18;;;;;;;;;;;;;;;;;;5067460;28;922;-61
2021/03/18 02:14:43;;;;;;;;;;;;;;;;;;5067354;28;894;-61
2021/03/18 02:17:11;;;;;;;;;;;;;;;;;;5067889;28;803;-61
2021/03/18 02:19:55;;;;;;;;;;;;;;;;;;5068263;28;829;-61
2021/03/18 02:22:29;;;;;;;;;;;;;;;;;;5067249;28;826;-61
2021/03/18 02:25:16;;;;;;;;;;;;;;;;;;5068071;28;814;-61
2021/03/18 02:27:41;;;;;;;;;;;;;;;;;;5067614;28;882;-61
2021/03/18 02:30:22;;;;;;;;;;;;;;;;;;5067359;28;1909;-61
2021/03/18 02:32:55;;;;;;;;;;;;;;;;;;5067148;28;843;-61
2021/03/18 02:35:24;;;;;;;;;;;;;;;;;;5069036;28;839;-62
2021/03/18 02:38:02;;;;;;;;;;;;;;;;;;5067116;28;897;-61
2021/03/18 02:40:29;;;;;;;;;;;;;;;;;;5067417;28;822;-61
2021/03/18 02:42:57;;;;;;;;;;;;;;;;;;5066606;28;862;-61
2021/03/18 02:45:25;;;;;;;;;;;;;;;;;;5067913;28;953;-61
2021/03/18 02:47:53;;;;;;;;;;;;;;;;;;5066996;28;949;-61
2021/03/18 02:50:19;;;;;;;;;;;;;;;;;;5066703;28;1898;-61
2021/03/18 02:52:46;;;;;;;;;;;;;;;;;;5066023;28;1078;-62
2021/03/18 02:55:12;;;;;;;;;;;;;;;;;;5046498;28;819;-61
2021/03/18 02:57:39;;;;;;;;;;;;;;;;;;5046986;28;843;-62
2021/03/18 03:00:09;;;;;;;;;;;;;;;;;;5047341;28;811;-61
2021/03/18 03:02:35;;;;;;;;;;;;;;;;;;5047183;28;973;-61
2021/03/18 03:05:02;;;;;;;;;;;;;;;;;;5047095;28;835;-61
2021/03/18 03:07:28;;;;;;;;;;;;;;;;;;5046813;28;832;-63
2021/03/18 03:09:55;;;;;;;;;;;;;;;;;;5047642;28;1894;-61
2021/03/18 03:12:22;;;;;;;;;;;;;;;;;;5046319;28;862;-62
2021/03/18 03:14:48;;;;;;;;;;;;;;;;;;5046971;28;859;-61
2021/03/18 03:17:16;;;;;;;;;;;;;;;;;;5047120;28;874;-62
2021/03/18 03:19:42;;;;;;;;;;;;;;;;;;5046658;28;783;-61
2021/03/18 03:22:08;;;;;;;;;;;;;;;;;;5046326;28;905;-61
2021/03/18 03:24:35;;;;;;;;;;;;;;;;;;5046449;28;819;-62
2021/03/18 03:27:01;;;;;;;;;;;;;;;;;;5046874;28;883;-61
2021/03/18 03:29:28;;;;;;;;;;;;;;;;;;5047639;28;834;-61
2021/03/18 03:31:53;;;;;;;;;;;;;;;;;;5047229;28;1890;-61
2021/03/18 03:34:18;;;;;;;;;;;;;;;;;;5048150;28;835;-61
2021/03/18 03:36:44;;;;;;;;;;;;;;;;;;5047129;28;890;-61
2021/03/18 03:39:10;;;;;;;;;;;;;;;;;;5046255;28;887;-62
2021/03/18 03:41:35;;;;;;;;;;;;;;;;;;5047006;28;862;-61
2021/03/18 03:44:01;;;;;;;;;;;;;;;;;;5046854;28;1130;-61
2021/03/18 03:46:27;;;;;;;;;;;;;;;;;;5046869;28;842;-62
2021/03/18 03:48:53;;;;;;;;;;;;;;;;;;5047088;28;823;-62
2021/03/18 03:51:18;;;;;;;;;;;;;;;;;;5049898;28;1897;-61
2021/03/18 03:53:55;;;;;;;;;;;;;;;;;;5057558;28;1164;-62
2021/03/18 03:56:24;;;;;;;;;;;;;;;;;;5070267;28;819;-62
2021/03/18 03:58:51;;;;;;;;;;;;;;;;;;5071090;28;846;-62
2021/03/18 04:01:39;;;;;;;;;;;;;;;;;;5070202;28;882;-61
2021/03/18 04:04:06;;;;;;;;;;;;;;;;;;5069016;28;1419;-62
2021/03/18 04:06:36;;;;;;;;;;;;;;;;;;5070239;28;850;-62
2021/03/18 04:09:04;;;;;;;;;;;;;;;;;;5069941;28;838;-62
2021/03/18 04:11:32;;;;;;;;;;;;;;;;;;5069398;28;1885;-62
2021/03/18 04:13:57;;;;;;;;;;;;;;;;;;5070096;28;890;-62
2021/03/18 04:16:25;;;;;;;;;;;;;;;;;;5070691;28;847;-62
2021/03/18 04:18:54;;;;;;;;;;;;;;;;;;5069483;28;847;-61
2021/03/18 04:21:20;;;;;;;;;;;;;;;;;;5069648;28;909;-61
2021/03/18 04:23:46;;;;;;;;;;;;;;;;;;5070059;28;902;-61
2021/03/18 04:26:11;;;;;;;;;;;;;;;;;;5069748;28;847;-61
2021/03/18 04:28:37;;;;;;;;;;;;;;;;;;5069696;28;798;-61
2021/03/18 04:31:04;;;;;;;;;;;;;;;;;;5069660;28;1971;-61
2021/03/18 04:33:30;;;;;;;;;;;;;;;;;;5069152;28;886;-61
2021/03/18 04:35:57;;;;;;;;;;;;;;;;;;5070877;28;677;-60
2021/03/18 04:38:26;;;;;;;;;;;;;;;;;;5069615;28;866;-62
2021/03/18 04:40:52;;;;;;;;;;;;;;;;;;5069305;28;842;-61
2021/03/18 04:43:18;;;;;;;;;;;;;;;;;;5069088;28;936;-61
2021/03/18 04:45:44;;;;;;;;;;;;;;;;;;5069295;28;842;-61
2021/03/18 04:48:10;;;;;;;;;;;;;;;;;;5069387;28;945;-61
2021/03/18 04:50:36;;;;;;;;;;;;;;;;;;5069053;28;1898;-61
2021/03/18 04:53:01;;;;;;;;;;;;;;;;;;5065678;28;1314;-61
2021/03/18 04:55:27;;;;;;;;;;;;;;;;;;5049751;28;863;-62
2021/03/18 04:57:58;;;;;;;;;;;;;;;;;;5050273;28;870;-61
2021/03/18 05:00:24;;;;;;;;;;;;;;;;;;5049478;28;827;-61
2021/03/18 05:02:50;;;;;;;;;;;;;;;;;;5047976;28;933;-61
2021/03/18 05:05:17;;;;;;;;;;;;;;;;;;5048980;28;815;-61
2021/03/18 05:07:44;;;;;;;;;;;;;;;;;;5048916;28;811;-61
2021/03/18 05:10:09;;;;;;;;;;;;;;;;;;5048588;28;1961;-61
2021/03/18 05:12:36;;;;;;;;;;;;;;;;;;5048938;28;871;-61
2021/03/18 05:15:02;;;;;;;;;;;;;;;;;;5049083;28;919;-61
2021/03/18 05:17:28;;;;;;;;;;;;;;;;;;5048332;28;905;-61
2021/03/18 05:19:53;;;;;;;;;;;;;;;;;;5048886;28;906;-61
2021/03/18 05:22:21;;;;;;;;;;;;;;;;;;5049343;28;859;-61
2021/03/18 05:24:47;;;;;;;;;;;;;;;;;;5048804;28;985;-61
2021/03/18 05:27:13;;;;;;;;;;;;;;;;;;5048140;28;902;-61
2021/03/18 05:29:38;;;;;;;;;;;;;;;;;;5048344;28;926;-62
2021/03/18 05:32:04;;;;;;;;;;;;;;;;;;5048648;28;1906;-61
2021/03/18 05:34:29;;;;;;;;;;;;;;;;;;5061454;28;1158;-61
2021/03/18 05:36:54;;;;;;;;;;;;;;;;;;5069713;28;881;-61
2021/03/18 05:39:20;;;;;;;;;;;;;;;;;;5068166;28;886;-61
2021/03/18 05:41:46;;;;;;;;;;;;;;;;;;5067224;28;886;-61
2021/03/18 05:44:12;;;;;;;;;;;;;;;;;;5067419;28;902;-61
2021/03/18 05:46:39;;;;;;;;;;;;;;;;;;5068038;28;910;-62
2021/03/18 05:49:04;;;;;;;;;;;;;;;;;;5067597;28;815;-61
2021/03/18 05:51:32;;;;;;;;;;;;;;;;;;5067688;28;1973;-61
2021/03/18 05:53:58;;;;;;;;;;;;;;;;;;5067585;28;1145;-61
2021/03/18 05:56:24;;;;;;;;;;;;;;;;;;5068845;28;847;-61
2021/03/18 05:58:50;;;;;;;;;;;;;;;;;;5065451;28;1140;-61
2021/03/18 06:01:16;;;;;;;;;;;;;;;;;;5066661;28;1208;-60
2021/03/18 06:03:42;;;;;;;;;;;;;;;;;;5066956;28;974;-60
2021/03/18 06:06:09;;;;;;;;;;;;;;;;;;5067279;28;962;-60
2021/03/18 06:08:35;;;;;;;;;;;;;;;;;;5067089;28;818;-61
2021/03/18 06:11:02;;;;;;;;;;;;;;;;;;5067530;28;1910;-60
2021/03/18 06:13:27;;;;;;;;;;;;;;;;;;5067158;28;851;-61
2021/03/18 06:15:52;;;;;;;;;;;;;;;;;;5068456;28;749;-60
2021/03/18 06:18:20;;;;;;;;;;;;;;;;;;5066567;28;902;-60
2021/03/18 06:20:53;;;;;;;;;;;;;;;;;;5067395;28;818;-61
2021/03/18 06:23:18;;;;;;;;;;;;;;;;;;5067394;28;921;-60
2021/03/18 06:25:44;;;;;;;;;;;;;;;;;;5067081;28;1241;-61
2021/03/18 06:28:10;;;;;;;;;;;;;;;;;;5067097;28;846;-60
2021/03/18 06:30:36;;;;;;;;;;;;;;;;;;5067230;28;1967;-60
2021/03/18 06:33:15;;;;;;;;;;;;;;;;;;5066857;28;854;-60
2021/03/18 06:35:40;;;;;;;;;;;;;;;;;;5067263;28;834;-61
2021/03/18 06:38:06;;;;;;;;;;;;;;;;;;5067207;28;917;-60
2021/03/18 06:40:38;;;;;;;;;;;;;;;;;;5066959;28;838;-61
2021/03/18 06:43:03;;;;;;;;;;;;;;;;;;5065441;28;918;-60
2021/03/18 06:45:33;;;;;;;;;;;;;;;;;;5066440;28;878;-61
2021/03/18 06:48:05;;;;;;;;;;;;;;;;;;5066737;28;864;-60
2021/03/18 06:50:38;;;;;;;;;;;;;;;;;;5067263;28;1897;-62
2021/03/18 06:53:24;;;;;;;;;;;;;;;;;;5056367;28;1055;-61
2021/03/18 06:55:49;;;;;;;;;;;;;;;;;;5066692;28;819;-61
2021/03/18 06:58:22;;;;;;;;;;;;;;;;;;5066903;28;839;-60
2021/03/18 07:00:48;;;;;;;;;;;;;;;;;;5066934;28;827;-61
2021/03/18 07:03:43;;;;;;;;;;;;;;;;;;5066808;28;831;-62
2021/03/18 07:06:09;;;;;;;;;;;;;;;;;;5065852;28;1448;-61
2021/03/18 07:08:40;;;;;;;;;;;;;;;;;;5064020;28;1333;-62
2021/03/18 07:11:16;;;;;;;;;;;;;;;;;;5053334;28;1910;-61
2021/03/18 07:13:42;;;;;;;;;;;;;;;;;;5066707;28;866;-61
2021/03/18 07:16:08;;;;;;;;;;;;;;;;;;5066259;28;925;-62
2021/03/18 07:18:33;;;;;;;;;;;;;;;;;;5066583;28;787;-62
2021/03/18 07:21:00;;;;;;;;;;;;;;;;;;5066541;28;815;-62
2021/03/18 07:23:35;;;;;;;;;;;;;;;;;;5067564;28;823;-62
2021/03/18 07:26:01;;;;;;;;;;;;;;;;;;5060932;28;1147;-61
2021/03/18 07:28:26;;;;;;;;;;;;;;;;;;5069110;28;1205;-62
2021/03/18 07:30:52;;;;;;;;;;;;;;;;;;5059604;28;1898;-62
2021/03/18 07:33:19;;;;;;;;;;;;;;;;;;5056196;28;1337;-62
2021/03/18 07:35:45;;;;;;;;;;;;;;;;;;5052334;28;1229;-62
2021/03/18 07:38:10;;;;;;;;;;;;;;;;;;5057148;28;1224;-60
2021/03/18 07:40:35;;;;;;;;;;;;;;;;;;5070684;28;831;-61
2021/03/18 07:43:02;;;;;;;;;;;;;;;;;;5069012;28;1180;-61
2021/03/18 07:45:28;;;;;;;;;;;;;;;;;;5069490;28;1180;-63
2021/03/18 07:47:54;;;;;;;;;;;;;;;;;;5071420;28;888;-61
2021/03/18 07:50:25;;;;;;;;;;;;;;;;;;5069976;28;2002;-62
2021/03/18 07:52:51;;;;;;;;;;;;;;;;;;5044451;28;1188;-61
2021/03/18 07:55:18;;;;;;;;;;;;;;;;;;5042460;28;1324;-61
2021/03/18 07:57:45;;;;;;;;;;;;;;;;;;5039260;28;1276;-62
2021/03/18 08:00:11;;;;;;;;;;;;;;;;;;5043106;28;1105;-62
2021/03/18 08:02:37;;;;;;;;;;;;;;;;;;5044924;28;1192;-61
2021/03/18 08:05:03;;;;;;;;;;;;;;;;;;5050816;28;1300;-60
2021/03/18 08:07:45;;;;;;;;;;;;;;;;;;5070242;28;1233;-63
2021/03/18 08:10:12;;;;;;;;;;;;;;;;;;5070164;28;1988;-62
2021/03/18 08:12:42;;;;;;;;;;;;;;;;;;5068717;28;1609;-62
2021/03/18 08:15:26;;;;;;;;;;;;;;;;;;5068238;28;901;-61
2021/03/18 08:17:53;;;;;;;;;;;;;;;;;;5066801;28;1226;-61
2021/03/18 08:20:37;;;;;;;;;;;;;;;;;;5049567;28;1191;-62
2021/03/18 08:23:22;;;;;;;;;;;;;;;;;;5047917;28;942;-61
2021/03/18 08:25:48;;;;;;;;;;;;;;;;;;5048519;28;1623;-60
2021/03/18 08:28:31;;;;;;;;;;;;;;;;;;5048974;28;930;-60
2021/03/18 08:30:57;;;;;;;;;;;;;;;;;;5049303;28;1885;-60
2021/03/18 08:33:38;;;;;;;;;;;;;;;;;;5044147;28;1775;-61
2021/03/18 08:36:22;;;;;;;;;;;;;;;;;;5044099;28;807;-61
2021/03/18 08:38:49;;;;;;;;;;;;;;;;;;5049114;28;1411;-60
2021/03/18 08:41:53;;;;;;;;;;;;;;;;;;5049655;28;808;-59
2021/03/18 08:44:25;;;;;;;;;;;;;;;;;;5066474;28;1474;-61
2021/03/18 08:46:53;;;;;;;;;;;;;;;;;;5066407;28;871;-60
2021/03/18 08:49:24;;;;;;;;;;;;;;;;;;5058217;28;1149;-60
2021/03/18 08:51:50;;;;;;;;;;;;;;;;;;5053488;28;1910;-61
2021/03/18 08:54:54;;;;;;;;;;;;;;;;;;5058139;28;1186;-61
2021/03/18 08:57:19;;;;;;;;;;;;;;;;;;5005305;28;1794;-60
2021/03/18 08:59:46;;;;;;;;;;;;;;;;;;5006523;28;1387;-60
2021/03/18 09:02:12;;;;;;;;;;;;;;;;;;5024901;28;1312;-60
2021/03/18 09:04:41;;;;;;;;;;;;;;;;;;5047520;28;1291;-60
2021/03/18 09:07:08;;;;;;;;;;;;;;;;;;5067511;28;890;-61
2021/03/18 09:09:33;;;;;;;;;;;;;;;;;;5050211;28;2209;-61
2021/03/18 09:12:00;;;;;;;;;;;;;;;;;;5038063;28;2408;-61
2021/03/18 09:14:26;;;;;;;;;;;;;;;;;;5048201;28;1109;-60
2021/03/18 09:16:51;;;;;;;;;;;;;;;;;;5046297;28;868;-60
2021/03/18 09:19:17;;;;;;;;;;;;;;;;;;5047216;28;895;-61
2021/03/18 09:21:45;;;;;;;;;;;;;;;;;;5040341;28;1460;-60
2021/03/18 09:24:11;;;;;;;;;;;;;;;;;;5042286;28;2012;-61
2021/03/18 09:26:39;;;;;;;;;;;;;;;;;;5046149;28;851;-61
2021/03/18 09:29:05;;;;;;;;;;;;;;;;;;5042596;28;1715;-60
2021/03/18 09:31:30;;;;;;;;;;;;;;;;;;5046188;28;1983;-61
2021/03/18 09:33:57;;;;;;;;;;;;;;;;;;5045326;28;2292;-60
2021/03/18 09:36:22;;;;;;;;;;;;;;;;;;5040013;28;870;-60
2021/03/18 09:38:55;;;;;;;;;;;;;;;;;;5046339;28;1508;-61
2021/03/18 09:41:22;;;;;;;;;;;;;;;;;;5047542;28;819;-60
2021/03/18 09:43:48;;;;;;;;;;;;;;;;;;5047314;28;934;-60
2021/03/18 09:46:13;;;;;;;;;;;;;;;;;;5048003;28;906;-63
2021/03/18 09:48:39;;;;;;;;;;;;;;;;;;5055710;28;1167;-60
2021/03/18 09:51:05;;;;;;;;;;;;;;;;;;5067313;28;1890;-60
2021/03/18 09:53:30;;;;;;;;;;;;;;;;;;5067282;28;1161;-60
2021/03/18 09:56:07;;;;;;;;;;;;;;;;;;5047615;28;1535;-60
2021/03/18 09:58:33;;;;;;;;;;;;;;;;;;5046131;28;867;-60
2021/03/18 10:01:08;;;;;;;;;;;;;;;;;;5047093;28;1225;-60
2021/03/18 10:03:33;;;;;;;;;;;;;;;;;;5048397;28;889;-60
2021/03/18 10:06:10;;;;;;;;;;;;;;;;;;5059637;28;1166;-60
2021/03/18 10:08:36;;;;;;;;;;;;;;;;;;5067835;28;807;-60
2021/03/18 10:11:13;;;;;;;;;;;;;;;;;;5068005;28;1910;-60
2021/03/18 10:13:39;;;;;;;;;;;;;;;;;;5067795;28;858;-60
2021/03/18 10:16:05;;;;;;;;;;;;;;;;;;5067697;28;929;-60
2021/03/18 10:18:30;;;;;;;;;;;;;;;;;;5066973;28;917;-60
2021/03/18 10:20:56;;;;;;;;;;;;;;;;;;5068783;28;898;-60
2021/03/18 10:23:25;;;;;;;;;;;;;;;;;;5066804;28;807;-60
2021/03/18 10:25:50;;;;;;;;;;;;;;;;;;5067236;28;826;-60
2021/03/18 10:28:17;;;;;;;;;;;;;;;;;;5062492;28;1444;-60
2021/03/18 10:30:44;;;;;;;;;;;;;;;;;;5046836;28;1975;-60
2021/03/18 10:33:13;;;;;;;;;;;;;;;;;;5047085;28;886;-60
2021/03/18 10:35:46;;;;;;;;;;;;;;;;;;5047172;28;842;-60
2021/03/18 10:38:15;;;;;;;;;;;;;;;;;;5047615;28;862;-60
2021/03/18 10:40:47;;;;;;;;;;;;;;;;;;5047120;28;679;-60
2021/03/18 10:43:17;;;;;;;;;;;;;;;;;;5045299;28;890;-60
2021/03/18 10:45:44;;;;;;;;;;;;;;;;;;5047287;28;841;-60
2021/03/18 10:48:09;;;;;;;;;;;;;;;;;;5047180;28;708;-61
2021/03/18 10:50:36;;;;;;;;;;;;;;;;;;5043002;28;1973;-60
2021/03/18 10:53:10;;;;;;;;;;;;;;;;;;5039250;28;1302;-59
2021/03/18 10:55:38;;;;;;;;;;;;;;;;;;5054831;28;1166;-59
2021/03/18 10:58:08;;;;;;;;;;;;;;;;;;5046501;28;862;-59
2021/03/18 11:00:35;;;;;;;;;;;;;;;;;;5044635;28;1431;-59
2021/03/18 11:03:05;;;;;;;;;;;;;;;;;;5046310;28;788;-60
2021/03/18 11:05:35;;;;;;;;;;;;;;;;;;5055020;28;1019;-61
2021/03/18 11:08:00;;;;;;;;;;;;;;;;;;5066375;28;837;-60
2021/03/18 11:10:45;;;;;;;;;;;;;;;;;;5066522;28;1889;-59
2021/03/18 11:13:13;;;;;;;;;;;;;;;;;;5066323;28;815;-60
2021/03/18 11:15:46;;;;;;;;;;;;;;;;;;5066148;28;878;-60
2021/03/18 11:18:11;;;;;;;;;;;;;;;;;;5067102;28;932;-60
2021/03/18 11:20:38;;;;;;;;;;;;;;;;;;5066916;28;934;-60
2021/03/18 11:23:03;;;;;;;;;;;;;;;;;;5066742;28;827;-58
2021/03/18 11:25:29;;;;;;;;;;;;;;;;;;5056696;28;834;-60
2021/03/18 11:27:55;;;;;;;;;;;;;;;;;;5047368;28;1340;-59
2021/03/18 11:30:31;;;;;;;;;;;;;;;;;;5054821;28;1940;-60
2021/03/18 11:33:07;;;;;;;;;;;;;;;;;;5043417;28;1233;-60
2021/03/18 11:35:32;;;;;;;;;;;;;;;;;;5060405;28;1420;-60
2021/03/18 11:37:58;;;;;;;;;;;;;;;;;;5044606;28;1181;-60
2021/03/18 11:40:24;;;;;;;;;;;;;;;;;;5055800;28;1169;-59
2021/03/18 11:42:49;;;;;;;;;;;;;;;;;;5061521;28;1240;-60
2021/03/18 11:45:15;;;;;;;;;;;;;;;;;;5064539;28;823;-60
2021/03/18 11:47:40;;;;;;;;;;;;;;;;;;5061909;28;1280;-59
2021/03/18 11:50:06;;;;;;;;;;;;;;;;;;5045758;28;1930;-60
2021/03/18 11:52:33;;;;;;;;;;;;;;;;;;5060525;28;1118;-59
2021/03/18 11:54:58;;;;;;;;;;;;;;;;;;5046827;28;1133;-60
2021/03/18 11:57:24;;;;;;;;;;;;;;;;;;5045312;28;929;-60
2021/03/18 11:59:49;;;;;;;;;;;;;;;;;;5060035;28;1229;-60
2021/03/18 12:02:15;;;;;;;;;;;;;;;;;;5053896;28;1185;-60
2021/03/18 12:04:41;;;;;;;;;;;;;;;;;;5052286;28;1166;-59
2021/03/18 12:07:06;;;;;;;;;;;;;;;;;;5052324;28;1183;-60
2021/03/18 12:09:31;;;;;;;;;;;;;;;;;;5052179;28;1106;-59
2021/03/18 12:11:57;;;;;;;;;;;;;;;;;;5061804;28;1953;-60
2021/03/18 12:14:22;;;;;;;;;;;;;;;;;;5057358;28;1077;-60
2021/03/18 12:16:47;;;;;;;;;;;;;;;;;;5048824;28;878;-60
2021/03/18 12:19:13;;;;;;;;;;;;;;;;;;5048792;28;882;-60
2021/03/18 12:21:38;;;;;;;;;;;;;;;;;;5048735;28;831;-61
2021/03/18 12:24:04;;;;;;;;;;;;;;;;;;5048417;28;1077;-60
2021/03/18 12:26:29;;;;;;;;;;;;;;;;;;5047985;28;941;-60
2021/03/18 12:28:54;;;;;;;;;;;;;;;;;;5049100;28;2083;-60
2021/03/18 12:31:20;;;;;;;;;;;;;;;;;;5048003;28;1886;-60
2021/03/18 12:33:45;;;;;;;;;;;;;;;;;;5044890;28;1705;-60
2021/03/18 12:36:11;;;;;;;;;;;;;;;;;;5044081;28;2041;-59
2021/03/18 12:38:36;;;;;;;;;;;;;;;;;;5047248;28;1622;-62
2021/03/18 12:41:01;;;;;;;;;;;;;;;;;;5046641;28;2032;-59
2021/03/18 12:43:27;;;;;;;;;;;;;;;;;;5057941;28;2025;-63
2021/03/18 12:45:52;;;;;;;;;;;;;;;;;;5050660;28;1187;-60
2021/03/18 12:48:18;;;;;;;;;;;;;;;;;;5029578;28;818;-63
2021/03/18 12:50:43;;;;;;;;;;;;;;;;;;5048935;28;1897;-60
2021/03/18 12:53:08;;;;;;;;;;;;;;;;;;5056257;28;1181;-61
2021/03/18 12:55:34;;;;;;;;;;;;;;;;;;5059272;28;1196;-60
2021/03/18 12:58:03;;;;;;;;;;;;;;;;;;5050383;28;1001;-60
2021/03/18 13:00:33;;;;;;;;;;;;;;;;;;5056345;28;1243;-61
2021/03/18 13:02:59;;;;;;;;;;;;;;;;;;5058950;28;1113;-61
2021/03/18 13:05:24;;;;;;;;;;;;;;;;;;5051502;28;1400;-61
2021/03/18 13:07:50;;;;;;;;;;;;;;;;;;5040210;28;1697;-61
2021/03/18 13:10:17;;;;;;;;;;;;;;;;;;5052972;28;1902;-61
2021/03/18 13:12:42;;;;;;;;;;;;;;;;;;5066166;28;877;-62
2021/03/18 13:15:08;;;;;;;;;;;;;;;;;;5066685;28;890;-61
2021/03/18 13:17:34;;;;;;;;;;;;;;;;;;5067102;28;1292;-62
2021/03/18 13:19:59;;;;;;;;;;;;;;;;;;5065969;28;1139;-62
2021/03/18 13:22:24;;;;;;;;;;;;;;;;;;5068762;28;831;-61
2021/03/18 13:24:50;;;;;;;;;;;;;;;;;;5067943;28;828;-61
2021/03/18 13:27:15;;;;;;;;;;;;;;;;;;5052350;28;1527;-61
2021/03/18 13:29:40;;;;;;;;;;;;;;;;;;5047414;28;826;-61
2021/03/18 13:32:06;;;;;;;;;;;;;;;;;;5048181;28;1894;-61
2021/03/18 13:34:31;;;;;;;;;;;;;;;;;;5047184;28;1364;-61
2021/03/18 13:36:56;;;;;;;;;;;;;;;;;;5049173;28;835;-61
2021/03/18 13:39:22;;;;;;;;;;;;;;;;;;5047680;28;882;-61
2021/03/18 13:41:47;;;;;;;;;;;;;;;;;;5041961;28;1669;-61
2021/03/18 13:44:13;;;;;;;;;;;;;;;;;;5028428;28;847;-61
2021/03/18 13:46:38;;;;;;;;;;;;;;;;;;5028474;28;847;-61
2021/03/18 13:49:04;;;;;;;;;;;;;;;;;;5029015;28;830;-61
2021/03/18 13:51:29;;;;;;;;;;;;;;;;;;5028446;28;1890;-61
2021/03/18 13:53:55;;;;;;;;;;;;;;;;;;5050734;28;1146;-61
2021/03/18 13:56:20;;;;;;;;;;;;;;;;;;5068983;28;831;-61
2021/03/18 13:58:47;;;;;;;;;;;;;;;;;;5068075;28;815;-61
2021/03/18 14:01:12;;;;;;;;;;;;;;;;;;5067612;28;870;-61
2021/03/18 14:03:38;;;;;;;;;;;;;;;;;;5058424;28;1331;-61
2021/03/18 14:06:03;;;;;;;;;;;;;;;;;;5048713;28;855;-61
2021/03/18 14:08:29;;;;;;;;;;;;;;;;;;5048511;28;830;-62
2021/03/18 14:10:54;;;;;;;;;;;;;;;;;;5048725;28;1894;-61
2021/03/18 14:13:19;;;;;;;;;;;;;;;;;;5050640;28;1161;-61
2021/03/18 14:15:46;;;;;;;;;;;;;;;;;;5047679;28;843;-61
2021/03/18 14:18:12;;;;;;;;;;;;;;;;;;5047842;28;839;-61
2021/03/18 14:20:38;;;;;;;;;;;;;;;;;;5047891;28;921;-62
2021/03/18 14:23:05;;;;;;;;;;;;;;;;;;5047555;28;934;-62
2021/03/18 14:25:30;;;;;;;;;;;;;;;;;;5047028;28;1355;-62
2021/03/18 14:27:56;;;;;;;;;;;;;;;;;;5048435;28;819;-60
2021/03/18 14:30:21;;;;;;;;;;;;;;;;;;5047921;28;1901;-61
2021/03/18 14:32:47;;;;;;;;;;;;;;;;;;5047644;28;807;-61
2021/03/18 14:35:13;;;;;;;;;;;;;;;;;;5046609;28;930;-61
2021/03/18 14:37:39;;;;;;;;;;;;;;;;;;5047835;28;1153;-61
2021/03/18 14:40:06;;;;;;;;;;;;;;;;;;5047876;28;812;-61
2021/03/18 14:42:31;;;;;;;;;;;;;;;;;;5045970;28;887;-62
2021/03/18 14:44:57;;;;;;;;;;;;;;;;;;5048044;28;907;-61
2021/03/18 14:47:22;;;;;;;;;;;;;;;;;;5042776;28;1472;-62
2021/03/18 14:49:47;;;;;;;;;;;;;;;;;;5037131;28;823;-62
2021/03/18 14:52:13;;;;;;;;;;;;;;;;;;5037163;28;1981;-60
2021/03/18 14:54:39;;;;;;;;;;;;;;;;;;5054245;28;1590;-61
2021/03/18 14:57:04;;;;;;;;;;;;;;;;;;5051751;28;1702;-61
2021/03/18 14:59:30;;;;;;;;;;;;;;;;;;5055228;28;1476;-61
2021/03/18 15:01:56;;;;;;;;;;;;;;;;;;5050081;28;1099;-61
2021/03/18 15:04:22;;;;;;;;;;;;;;;;;;5038074;28;1698;-61
2021/03/18 15:06:47;;;;;;;;;;;;;;;;;;5055676;28;1151;-60
2021/03/18 15:09:13;;;;;;;;;;;;;;;;;;5066816;28;973;-61
2021/03/18 15:11:38;;;;;;;;;;;;;;;;;;5061146;28;1959;-61
2021/03/18 15:14:04;;;;;;;;;;;;;;;;;;5046509;28;869;-61
2021/03/18 15:16:29;;;;;;;;;;;;;;;;;;5046742;28;890;-62
2021/03/18 15:18:55;;;;;;;;;;;;;;;;;;5047897;28;843;-62
2021/03/18 15:21:23;;;;;;;;;;;;;;;;;;5049198;28;1253;-61
2021/03/18 15:23:50;;;;;;;;;;;;;;;;;;5055213;28;1167;-61
2021/03/18 15:26:16;;;;;;;;;;;;;;;;;;5045206;28;1257;-61
2021/03/18 15:28:41;;;;;;;;;;;;;;;;;;5040777;28;1623;-61
2021/03/18 15:31:07;;;;;;;;;;;;;;;;;;5026322;28;1902;-62
2021/03/18 15:33:32;;;;;;;;;;;;;;;;;;5026508;28;926;-62
2021/03/18 15:35:57;;;;;;;;;;;;;;;;;;5034381;28;1056;-62
2021/03/18 15:38:24;;;;;;;;;;;;;;;;;;5064143;28;1151;-62
2021/03/18 15:40:50;;;;;;;;;;;;;;;;;;5066774;28;1024;-62
2021/03/18 15:43:15;;;;;;;;;;;;;;;;;;5066411;28;846;-62
2021/03/18 15:45:41;;;;;;;;;;;;;;;;;;5067004;28;1103;-62
2021/03/18 15:48:07;;;;;;;;;;;;;;;;;;5058894;28;1372;-62
2021/03/18 15:50:33;;;;;;;;;;;;;;;;;;5049547;28;2243;-62
2021/03/18 15:52:58;;;;;;;;;;;;;;;;;;5053854;28;1079;-62
2021/03/18 15:55:25;;;;;;;;;;;;;;;;;;5064914;28;1268;-61
2021/03/18 15:57:53;;;;;;;;;;;;;;;;;;5049985;28;859;-61
2021/03/18 16:00:19;;;;;;;;;;;;;;;;;;5049953;28;879;-62
2021/03/18 16:02:45;;;;;;;;;;;;;;;;;;5051100;28;866;-61
2021/03/18 16:05:11;;;;;;;;;;;;;;;;;;5050267;28;869;-62
2021/03/18 16:07:36;;;;;;;;;;;;;;;;;;5049924;28;834;-62
2021/03/18 16:10:09;;;;;;;;;;;;;;;;;;5050639;28;886;-62
2021/03/18 16:12:34;;;;;;;;;;;;;;;;;;5046947;28;1965;-61
2021/03/18 16:15:00;;;;;;;;;;;;;;;;;;5055129;28;1371;-62
2021/03/18 16:17:26;;;;;;;;;;;;;;;;;;5054040;28;1226;-62
2021/03/18 16:19:52;;;;;;;;;;;;;;;;;;5050419;28;918;-61
2021/03/18 16:22:19;;;;;;;;;;;;;;;;;;5049116;28;835;-61
2021/03/18 16:24:44;;;;;;;;;;;;;;;;;;5048825;28;1359;-62
2021/03/18 16:27:11;;;;;;;;;;;;;;;;;;5054243;28;1171;-62
2021/03/18 16:29:36;;;;;;;;;;;;;;;;;;5056565;28;1238;-62
2021/03/18 16:32:02;;;;;;;;;;;;;;;;;;5059425;28;1967;-62
2021/03/18 16:34:28;;;;;;;;;;;;;;;;;;5055663;28;1155;-62
2021/03/18 16:36:53;;;;;;;;;;;;;;;;;;5045532;28;1284;-62
2021/03/18 16:39:18;;;;;;;;;;;;;;;;;;5052155;28;1309;-62
2021/03/18 16:41:45;;;;;;;;;;;;;;;;;;5048212;28;1513;-62
2021/03/18 16:44:10;;;;;;;;;;;;;;;;;;5053028;28;1218;-62
2021/03/18 16:46:38;;;;;;;;;;;;;;;;;;5049084;28;854;-62
2021/03/18 16:49:04;;;;;;;;;;;;;;;;;;5047572;28;815;-62
2021/03/18 16:51:29;;;;;;;;;;;;;;;;;;5049321;28;1906;-62
2021/03/18 16:53:55;;;;;;;;;;;;;;;;;;5059781;28;1094;-61
2021/03/18 16:56:21;;;;;;;;;;;;;;;;;;5056078;28;898;-61
2021/03/18 16:58:47;;;;;;;;;;;;;;;;;;5049606;28;1084;-62
2021/03/18 17:01:12;;;;;;;;;;;;;;;;;;5058765;28;1182;-61
2021/03/18 17:03:38;;;;;;;;;;;;;;;;;;5054352;28;1159;-61
2021/03/18 17:06:03;;;;;;;;;;;;;;;;;;5048496;28;800;-61
2021/03/18 17:08:29;;;;;;;;;;;;;;;;;;5042542;28;863;-61
2021/03/18 17:10:56;;;;;;;;;;;;;;;;;;5040855;28;1972;-61
2021/03/18 17:13:23;;;;;;;;;;;;;;;;;;5068756;28;862;-61